createdAt,value
2018-05-13T00:13:42.055Z,14.65
2018-05-13T00:16:11.777Z,14.62
2018-05-13T00:36:41.197Z,14.82
2018-05-13T00:57:11.241Z,15.10
2018-05-13T01:17:41.683Z,14.96
2018-05-13T01:38:12.435Z,14.82
2018-05-13T01:58:43.515Z,14.77
2018-05-13T02:19:14.239Z,14.76
2018-05-13T02:39:45.304Z,14.47
2018-05-13T03:00:16.883Z,14.60
2018-05-13T03:20:46.711Z,16.69
2018-05-13T03:41:19.298Z,19.91
2018-05-13T04:01:50.775Z,22.50
2018-05-13T04:22:20.196Z,25.73
2018-05-13T04:42:52.181Z,25.87
2018-05-13T05:03:22.424Z,28.37
2018-05-13T05:23:54.388Z,28.60
2018-05-13T05:44:24.836Z,31.56
2018-05-13T06:04:55.482Z,30.27
2018-05-13T06:25:26.446Z,32.06
2018-05-13T06:45:57.126Z,34.22
2018-05-13T07:06:27.023Z,36.21
2018-05-13T07:26:56.857Z,36.29
2018-05-13T08:08:09.927Z,25.88
2018-05-13T08:49:21.880Z,23.62
2018-05-13T09:09:55.706Z,23.93
2018-05-13T09:30:26.254Z,23.84
2018-05-13T09:50:56.288Z,23.28
2018-05-13T10:11:28.364Z,22.84
2018-05-13T10:31:59.241Z,22.07
2018-05-13T10:52:29.564Z,21.67
2018-05-13T11:13:00.034Z,22.18
2018-05-13T11:33:30.157Z,22.64
2018-05-13T12:14:40.052Z,21.81
2018-05-13T12:35:12.233Z,21.47
2018-05-13T12:55:41.859Z,21.53
2018-05-13T13:16:13.126Z,21.17
2018-05-13T13:36:43.479Z,21.09
2018-05-13T13:57:15.561Z,20.65
2018-05-13T14:17:48.560Z,20.60
2018-05-13T14:38:24.339Z,20.51
2018-05-13T15:18:25.221Z,20.20
2018-05-13T15:38:55.448Z,20.05
2018-05-13T15:59:27.329Z,19.68
2018-05-13T16:19:57.779Z,19.27
2018-05-13T16:40:28.013Z,18.72
2018-05-13T17:00:58.462Z,18.41
2018-05-13T17:21:28.710Z,18.01
2018-05-13T17:42:00.065Z,17.50
2018-05-13T18:02:31.054Z,17.40
2018-05-13T18:23:10.394Z,17.32
2018-05-13T18:43:41.192Z,17.23
2018-05-13T19:04:10.753Z,16.91
2018-05-13T19:24:40.732Z,17.09
2018-05-13T19:45:11.338Z,17.43
2018-05-13T20:05:45.058Z,17.19
2018-05-13T20:26:15.531Z,16.87
2018-05-13T20:46:45.845Z,16.77
2018-05-13T21:07:19.261Z,16.87
2018-05-13T21:27:50.124Z,16.71
2018-05-13T21:48:21.176Z,16.49
